sensor_id;sensor_type;location;lat;lon;timestamp;P1;durP1;ratioP1;P2;durP2;ratioP2
71610;SDS011;59459;51.172;6.682;2022-09-09T00:00:14;1.55;;;0.77;;
71610;SDS011;59459;51.172;6.682;2022-09-09T00:03:02;2.60;;;0.60;;
71610;SDS011;59459;51.172;6.682;2022-09-09T00:07:59;4.53;;;0.60;;
71610;SDS011;59459;51.172;6.682;2022-09-09T00:15:20;4.87;;;0.80;;
71610;SDS011;59459;51.172;6.682;2022-09-09T00:18:03;1.88;;;0.50;;
71610;SDS011;59459;51.172;6.682;2022-09-09T00:23:16;1.87;;;0.50;;
71610;SDS011;59459;51.172;6.682;2022-09-09T00:28:25;2.97;;;0.70;;
71610;SDS011;59459;51.172;6.682;2022-09-09T00:30:51;2.03;;;0.80;;
71610;SDS011;59459;51.172;6.682;2022-09-09T00:33:19;2.80;;;0.60;;
71610;SDS011;59459;51.172;6.682;2022-09-09T00:35:54;1.38;;;0.50;;
71610;SDS011;59459;51.172;6.682;2022-09-09T00:43:29;2.03;;;0.60;;
71610;SDS011;59459;51.172;6.682;2022-09-09T00:46:01;1.40;;;0.50;;
71610;SDS011;59459;51.172;6.682;2022-09-09T00:48:33;1.90;;;0.70;;
71610;SDS011;59459;51.172;6.682;2022-09-09T00:51:03;2.67;;;0.60;;
71610;SDS011;59459;51.172;6.682;2022-09-09T00:53:36;1.75;;;0.70;;
71610;SDS011;59459;51.172;6.682;2022-09-09T00:56:09;1.73;;;0.60;;
71610;SDS011;59459;51.172;6.682;2022-09-09T00:58:36;3.95;;;0.60;;
71610;SDS011;59459;51.172;6.682;2022-09-09T01:01:05;2.57;;;0.60;;
71610;SDS011;59459;51.172;6.682;2022-09-09T01:16:56;2.88;;;0.88;;
71610;SDS011;59459;51.172;6.682;2022-09-09T01:19:27;2.08;;;0.73;;
71610;SDS011;59459;51.172;6.682;2022-09-09T01:22:01;2.67;;;0.80;;
71610;SDS011;59459;51.172;6.682;2022-09-09T01:24:43;2.27;;;0.87;;
71610;SDS011;59459;51.172;6.682;2022-09-09T01:27:11;3.42;;;0.90;;
71610;SDS011;59459;51.172;6.682;2022-09-09T01:29:38;3.30;;;0.70;;
71610;SDS011;59459;51.172;6.682;2022-09-09T01:34:48;2.80;;;0.50;;
71610;SDS011;59459;51.172;6.682;2022-09-09T01:37:13;5.77;;;0.80;;
71610;SDS011;59459;51.172;6.682;2022-09-09T01:39:39;2.33;;;0.67;;
71610;SDS011;59459;51.172;6.682;2022-09-09T01:42:05;4.43;;;0.70;;
71610;SDS011;59459;51.172;6.682;2022-09-09T01:44:31;3.97;;;1.02;;
71610;SDS011;59459;51.172;6.682;2022-09-09T01:46:57;4.50;;;0.70;;
71610;SDS011;59459;51.172;6.682;2022-09-09T01:49:22;3.43;;;0.50;;
71610;SDS011;59459;51.172;6.682;2022-09-09T01:51:52;4.50;;;0.80;;
71610;SDS011;59459;51.172;6.682;2022-09-09T01:54:18;2.90;;;0.53;;
71610;SDS011;59459;51.172;6.682;2022-09-09T01:57:01;4.82;;;1.13;;
71610;SDS011;59459;51.172;6.682;2022-09-09T02:02:08;4.68;;;0.90;;
71610;SDS011;59459;51.172;6.682;2022-09-09T02:04:41;2.70;;;0.73;;
71610;SDS011;59459;51.172;6.682;2022-09-09T02:09:52;2.67;;;0.70;;
71610;SDS011;59459;51.172;6.682;2022-09-09T02:12:22;3.58;;;0.70;;
71610;SDS011;59459;51.172;6.682;2022-09-09T02:14:55;4.03;;;0.70;;
71610;SDS011;59459;51.172;6.682;2022-09-09T02:17:26;2.17;;;0.60;;
71610;SDS011;59459;51.172;6.682;2022-09-09T02:20:25;3.83;;;0.50;;
71610;SDS011;59459;51.172;6.682;2022-09-09T02:22:44;4.70;;;0.60;;
71610;SDS011;59459;51.172;6.682;2022-09-09T02:25:10;2.95;;;0.65;;
71610;SDS011;59459;51.172;6.682;2022-09-09T02:27:37;4.78;;;1.02;;
71610;SDS011;59459;51.172;6.682;2022-09-09T02:30:02;2.63;;;0.77;;
71610;SDS011;59459;51.172;6.682;2022-09-09T02:32:28;2.38;;;0.70;;
71610;SDS011;59459;51.172;6.682;2022-09-09T02:35:17;3.53;;;0.70;;
71610;SDS011;59459;51.172;6.682;2022-09-09T02:37:41;4.88;;;0.93;;
71610;SDS011;59459;51.172;6.682;2022-09-09T02:40:08;3.35;;;0.80;;
71610;SDS011;59459;51.172;6.682;2022-09-09T02:42:41;3.42;;;1.00;;
71610;SDS011;59459;51.172;6.682;2022-09-09T02:45:07;3.78;;;0.80;;
71610;SDS011;59459;51.172;6.682;2022-09-09T02:55:23;3.80;;;0.80;;
71610;SDS011;59459;51.172;6.682;2022-09-09T02:57:49;3.00;;;0.90;;
71610;SDS011;59459;51.172;6.682;2022-09-09T03:00:14;4.87;;;0.87;;
71610;SDS011;59459;51.172;6.682;2022-09-09T03:02:40;5.07;;;0.90;;
71610;SDS011;59459;51.172;6.682;2022-09-09T03:05:07;4.82;;;0.90;;
71610;SDS011;59459;51.172;6.682;2022-09-09T03:07:32;4.37;;;1.00;;
71610;SDS011;59459;51.172;6.682;2022-09-09T03:09:57;4.13;;;0.93;;
71610;SDS011;59459;51.172;6.682;2022-09-09T03:12:23;5.03;;;0.88;;
71610;SDS011;59459;51.172;6.682;2022-09-09T03:14:48;5.83;;;1.17;;
71610;SDS011;59459;51.172;6.682;2022-09-09T03:17:14;5.05;;;0.80;;
71610;SDS011;59459;51.172;6.682;2022-09-09T03:19:40;3.37;;;0.90;;
71610;SDS011;59459;51.172;6.682;2022-09-09T03:22:05;4.50;;;1.10;;
71610;SDS011;59459;51.172;6.682;2022-09-09T03:24:30;3.90;;;0.90;;
71610;SDS011;59459;51.172;6.682;2022-09-09T03:26:55;3.93;;;1.00;;
71610;SDS011;59459;51.172;6.682;2022-09-09T03:29:21;7.17;;;0.90;;
71610;SDS011;59459;51.172;6.682;2022-09-09T03:31:46;4.50;;;1.10;;
71610;SDS011;59459;51.172;6.682;2022-09-09T03:34:11;7.10;;;1.23;;
71610;SDS011;59459;51.172;6.682;2022-09-09T03:36:38;4.47;;;0.82;;
71610;SDS011;59459;51.172;6.682;2022-09-09T03:39:03;4.13;;;0.80;;
71610;SDS011;59459;51.172;6.682;2022-09-09T03:41:29;4.30;;;1.00;;
71610;SDS011;59459;51.172;6.682;2022-09-09T03:43:54;4.03;;;1.13;;
71610;SDS011;59459;51.172;6.682;2022-09-09T03:46:20;4.47;;;1.20;;
71610;SDS011;59459;51.172;6.682;2022-09-09T03:48:46;3.47;;;1.10;;
71610;SDS011;59459;51.172;6.682;2022-09-09T03:51:12;4.77;;;1.20;;
71610;SDS011;59459;51.172;6.682;2022-09-09T03:53:37;3.63;;;0.90;;
71610;SDS011;59459;51.172;6.682;2022-09-09T03:56:03;4.43;;;1.20;;
71610;SDS011;59459;51.172;6.682;2022-09-09T03:58:29;3.03;;;0.88;;
71610;SDS011;59459;51.172;6.682;2022-09-09T04:03:19;6.50;;;0.90;;
71610;SDS011;59459;51.172;6.682;2022-09-09T04:05:44;3.57;;;1.00;;
71610;SDS011;59459;51.172;6.682;2022-09-09T04:08:10;4.13;;;0.97;;
71610;SDS011;59459;51.172;6.682;2022-09-09T04:10:36;5.13;;;1.00;;
71610;SDS011;59459;51.172;6.682;2022-09-09T04:13:02;4.37;;;1.20;;
71610;SDS011;59459;51.172;6.682;2022-09-09T04:15:27;4.05;;;1.00;;
71610;SDS011;59459;51.172;6.682;2022-09-09T04:17:53;4.87;;;1.13;;
71610;SDS011;59459;51.172;6.682;2022-09-09T04:20:18;4.27;;;0.97;;
71610;SDS011;59459;51.172;6.682;2022-09-09T04:22:44;4.85;;;1.05;;
71610;SDS011;59459;51.172;6.682;2022-09-09T04:25:09;6.53;;;1.07;;
71610;SDS011;59459;51.172;6.682;2022-09-09T04:27:34;5.40;;;1.20;;
71610;SDS011;59459;51.172;6.682;2022-09-09T04:29:59;6.13;;;1.13;;
71610;SDS011;59459;51.172;6.682;2022-09-09T04:32:25;5.77;;;1.03;;
71610;SDS011;59459;51.172;6.682;2022-09-09T04:34:53;2.53;;;0.88;;
71610;SDS011;59459;51.172;6.682;2022-09-09T04:37:18;5.40;;;1.17;;
71610;SDS011;59459;51.172;6.682;2022-09-09T04:39:43;4.80;;;1.27;;
71610;SDS011;59459;51.172;6.682;2022-09-09T04:42:08;6.27;;;1.37;;
71610;SDS011;59459;51.172;6.682;2022-09-09T04:44:33;5.90;;;1.40;;
71610;SDS011;59459;51.172;6.682;2022-09-09T04:46:58;6.53;;;1.40;;
71610;SDS011;59459;51.172;6.682;2022-09-09T04:49:24;4.60;;;1.20;;
71610;SDS011;59459;51.172;6.682;2022-09-09T04:51:49;5.30;;;1.20;;
71610;SDS011;59459;51.172;6.682;2022-09-09T04:54:14;4.87;;;1.50;;
71610;SDS011;59459;51.172;6.682;2022-09-09T04:56:39;6.37;;;1.23;;
71610;SDS011;59459;51.172;6.682;2022-09-09T04:59:07;5.72;;;1.50;;
71610;SDS011;59459;51.172;6.682;2022-09-09T05:01:32;3.87;;;1.63;;
71610;SDS011;59459;51.172;6.682;2022-09-09T05:03:57;6.97;;;1.40;;
71610;SDS011;59459;51.172;6.682;2022-09-09T05:06:23;6.83;;;1.10;;
71610;SDS011;59459;51.172;6.682;2022-09-09T05:08:48;6.20;;;1.23;;
71610;SDS011;59459;51.172;6.682;2022-09-09T05:13:41;4.63;;;1.20;;
71610;SDS011;59459;51.172;6.682;2022-09-09T05:16:06;4.60;;;1.10;;
71610;SDS011;59459;51.172;6.682;2022-09-09T05:18:31;5.30;;;1.50;;
71610;SDS011;59459;51.172;6.682;2022-09-09T05:20:59;6.90;;;1.53;;
71610;SDS011;59459;51.172;6.682;2022-09-09T05:23:25;5.97;;;1.30;;
71610;SDS011;59459;51.172;6.682;2022-09-09T05:25:55;4.60;;;1.30;;
71610;SDS011;59459;51.172;6.682;2022-09-09T05:28:20;10.32;;;1.70;;
71610;SDS011;59459;51.172;6.682;2022-09-09T05:30:45;4.93;;;1.60;;
71610;SDS011;59459;51.172;6.682;2022-09-09T05:33:10;6.33;;;1.43;;
71610;SDS011;59459;51.172;6.682;2022-09-09T05:35:36;6.03;;;1.20;;
71610;SDS011;59459;51.172;6.682;2022-09-09T05:38:02;7.35;;;1.35;;
71610;SDS011;59459;51.172;6.682;2022-09-09T05:40:28;5.00;;;1.37;;
71610;SDS011;59459;51.172;6.682;2022-09-09T05:42:53;7.20;;;1.60;;
71610;SDS011;59459;51.172;6.682;2022-09-09T05:45:18;7.47;;;1.40;;
71610;SDS011;59459;51.172;6.682;2022-09-09T05:47:44;6.93;;;1.67;;
71610;SDS011;59459;51.172;6.682;2022-09-09T05:50:09;9.17;;;1.87;;
71610;SDS011;59459;51.172;6.682;2022-09-09T05:52:35;6.87;;;1.40;;
71610;SDS011;59459;51.172;6.682;2022-09-09T05:55:00;5.33;;;1.37;;
71610;SDS011;59459;51.172;6.682;2022-09-09T05:57:25;9.73;;;1.90;;
71610;SDS011;59459;51.172;6.682;2022-09-09T05:59:50;8.17;;;2.10;;
71610;SDS011;59459;51.172;6.682;2022-09-09T06:02:15;7.47;;;1.90;;
71610;SDS011;59459;51.172;6.682;2022-09-09T06:04:41;6.23;;;1.40;;
71610;SDS011;59459;51.172;6.682;2022-09-09T06:07:06;6.43;;;1.50;;
71610;SDS011;59459;51.172;6.682;2022-09-09T06:09:31;6.57;;;1.80;;
71610;SDS011;59459;51.172;6.682;2022-09-09T06:11:57;5.27;;;1.20;;
71610;SDS011;59459;51.172;6.682;2022-09-09T06:14:23;6.43;;;1.48;;
71610;SDS011;59459;51.172;6.682;2022-09-09T06:16:49;5.90;;;1.58;;
71610;SDS011;59459;51.172;6.682;2022-09-09T06:19:15;5.88;;;1.50;;
71610;SDS011;59459;51.172;6.682;2022-09-09T06:21:43;6.27;;;1.57;;
71610;SDS011;59459;51.172;6.682;2022-09-09T06:24:09;6.47;;;1.23;;
71610;SDS011;59459;51.172;6.682;2022-09-09T06:26:36;6.07;;;1.60;;
71610;SDS011;59459;51.172;6.682;2022-09-09T06:29:02;7.85;;;1.23;;
71610;SDS011;59459;51.172;6.682;2022-09-09T06:31:29;7.78;;;1.75;;
71610;SDS011;59459;51.172;6.682;2022-09-09T06:33:59;6.87;;;1.57;;
71610;SDS011;59459;51.172;6.682;2022-09-09T06:36:25;8.37;;;1.53;;
71610;SDS011;59459;51.172;6.682;2022-09-09T06:38:50;8.67;;;1.13;;
71610;SDS011;59459;51.172;6.682;2022-09-09T06:41:16;6.57;;;1.10;;
71610;SDS011;59459;51.172;6.682;2022-09-09T06:43:42;7.70;;;1.38;;
71610;SDS011;59459;51.172;6.682;2022-09-09T06:46:14;6.47;;;1.10;;
71610;SDS011;59459;51.172;6.682;2022-09-09T06:48:40;4.47;;;1.20;;
71610;SDS011;59459;51.172;6.682;2022-09-09T06:51:16;4.80;;;1.10;;
71610;SDS011;59459;51.172;6.682;2022-09-09T06:53:43;7.35;;;0.95;;
71610;SDS011;59459;51.172;6.682;2022-09-09T06:58:34;7.77;;;0.90;;
71610;SDS011;59459;51.172;6.682;2022-09-09T07:01:03;8.27;;;1.10;;
71610;SDS011;59459;51.172;6.682;2022-09-09T07:03:28;6.22;;;0.90;;
71610;SDS011;59459;51.172;6.682;2022-09-09T07:05:54;6.43;;;1.37;;
71610;SDS011;59459;51.172;6.682;2022-09-09T07:08:21;5.60;;;1.05;;
71610;SDS011;59459;51.172;6.682;2022-09-09T07:10:46;6.27;;;1.20;;
71610;SDS011;59459;51.172;6.682;2022-09-09T07:13:12;6.97;;;0.82;;
71610;SDS011;59459;51.172;6.682;2022-09-09T07:15:40;6.93;;;0.90;;
71610;SDS011;59459;51.172;6.682;2022-09-09T07:18:06;4.97;;;0.90;;
71610;SDS011;59459;51.172;6.682;2022-09-09T07:20:31;9.47;;;1.40;;
71610;SDS011;59459;51.172;6.682;2022-09-09T07:22:56;5.27;;;0.87;;
71610;SDS011;59459;51.172;6.682;2022-09-09T07:25:23;5.75;;;0.95;;
71610;SDS011;59459;51.172;6.682;2022-09-09T07:27:48;6.23;;;1.40;;
71610;SDS011;59459;51.172;6.682;2022-09-09T07:30:14;7.33;;;1.13;;
71610;SDS011;59459;51.172;6.682;2022-09-09T07:32:39;5.20;;;0.90;;
71610;SDS011;59459;51.172;6.682;2022-09-09T07:35:05;4.07;;;0.70;;
71610;SDS011;59459;51.172;6.682;2022-09-09T07:37:30;6.47;;;1.00;;
71610;SDS011;59459;51.172;6.682;2022-09-09T07:39:55;6.17;;;1.10;;
71610;SDS011;59459;51.172;6.682;2022-09-09T07:42:20;9.63;;;1.30;;
71610;SDS011;59459;51.172;6.682;2022-09-09T07:44:46;4.47;;;1.17;;
71610;SDS011;59459;51.172;6.682;2022-09-09T07:47:11;6.03;;;1.17;;
71610;SDS011;59459;51.172;6.682;2022-09-09T07:49:36;3.53;;;0.87;;
71610;SDS011;59459;51.172;6.682;2022-09-09T07:52:01;7.07;;;1.20;;
71610;SDS011;59459;51.172;6.682;2022-09-09T07:54:27;4.43;;;0.85;;
71610;SDS011;59459;51.172;6.682;2022-09-09T07:56:52;6.90;;;1.17;;
71610;SDS011;59459;51.172;6.682;2022-09-09T07:59:18;5.30;;;0.80;;
71610;SDS011;59459;51.172;6.682;2022-09-09T08:01:44;5.07;;;1.13;;
71610;SDS011;59459;51.172;6.682;2022-09-09T08:04:14;4.93;;;0.80;;
71610;SDS011;59459;51.172;6.682;2022-09-09T08:06:41;8.40;;;0.93;;
71610;SDS011;59459;51.172;6.682;2022-09-09T08:09:07;4.50;;;1.27;;
71610;SDS011;59459;51.172;6.682;2022-09-09T08:11:33;5.55;;;0.95;;
71610;SDS011;59459;51.172;6.682;2022-09-09T08:13:59;5.20;;;1.20;;
71610;SDS011;59459;51.172;6.682;2022-09-09T08:16:28;6.50;;;0.93;;
71610;SDS011;59459;51.172;6.682;2022-09-09T08:18:55;4.90;;;1.20;;
71610;SDS011;59459;51.172;6.682;2022-09-09T08:21:21;7.90;;;1.37;;
71610;SDS011;59459;51.172;6.682;2022-09-09T08:23:47;5.80;;;0.93;;
71610;SDS011;59459;51.172;6.682;2022-09-09T08:26:14;5.35;;;0.98;;
71610;SDS011;59459;51.172;6.682;2022-09-09T08:28:40;4.90;;;0.90;;
71610;SDS011;59459;51.172;6.682;2022-09-09T08:31:15;7.22;;;0.95;;
71610;SDS011;59459;51.172;6.682;2022-09-09T08:33:41;7.97;;;1.30;;
71610;SDS011;59459;51.172;6.682;2022-09-09T08:36:08;6.07;;;1.43;;
71610;SDS011;59459;51.172;6.682;2022-09-09T08:38:34;3.10;;;0.90;;
71610;SDS011;59459;51.172;6.682;2022-09-09T08:43:43;4.78;;;1.08;;
71610;SDS011;59459;51.172;6.682;2022-09-09T08:46:13;4.65;;;0.90;;
71610;SDS011;59459;51.172;6.682;2022-09-09T08:48:51;2.70;;;1.00;;
71610;SDS011;59459;51.172;6.682;2022-09-09T08:51:17;5.38;;;1.20;;
71610;SDS011;59459;51.172;6.682;2022-09-09T08:53:44;6.40;;;1.50;;
71610;SDS011;59459;51.172;6.682;2022-09-09T08:56:12;6.18;;;1.20;;
71610;SDS011;59459;51.172;6.682;2022-09-09T08:58:49;4.78;;;0.77;;
71610;SDS011;59459;51.172;6.682;2022-09-09T09:11:48;5.28;;;1.20;;
71610;SDS011;59459;51.172;6.682;2022-09-09T09:14:34;5.03;;;1.05;;
71610;SDS011;59459;51.172;6.682;2022-09-09T09:17:04;6.20;;;1.03;;
71610;SDS011;59459;51.172;6.682;2022-09-09T09:19:30;5.72;;;0.90;;
71610;SDS011;59459;51.172;6.682;2022-09-09T09:22:13;4.03;;;1.13;;
71610;SDS011;59459;51.172;6.682;2022-09-09T09:24:51;6.28;;;0.98;;
71610;SDS011;59459;51.172;6.682;2022-09-09T09:27:35;3.45;;;0.80;;
71610;SDS011;59459;51.172;6.682;2022-09-09T09:30:04;2.77;;;0.80;;
71610;SDS011;59459;51.172;6.682;2022-09-09T09:32:31;2.80;;;0.93;;
71610;SDS011;59459;51.172;6.682;2022-09-09T09:34:58;5.32;;;1.10;;
71610;SDS011;59459;51.172;6.682;2022-09-09T09:37:29;4.38;;;0.93;;
71610;SDS011;59459;51.172;6.682;2022-09-09T09:39:55;5.03;;;1.05;;
71610;SDS011;59459;51.172;6.682;2022-09-09T09:42:20;2.37;;;0.87;;
71610;SDS011;59459;51.172;6.682;2022-09-09T09:44:46;6.57;;;0.87;;
71610;SDS011;59459;51.172;6.682;2022-09-09T09:47:12;3.03;;;0.90;;
71610;SDS011;59459;51.172;6.682;2022-09-09T09:49:38;6.18;;;1.00;;
71610;SDS011;59459;51.172;6.682;2022-09-09T09:52:04;6.32;;;1.20;;
71610;SDS011;59459;51.172;6.682;2022-09-09T09:54:32;3.45;;;0.80;;
71610;SDS011;59459;51.172;6.682;2022-09-09T09:57:11;3.67;;;0.98;;
71610;SDS011;59459;51.172;6.682;2022-09-09T09:59:36;3.60;;;0.87;;
71610;SDS011;59459;51.172;6.682;2022-09-09T10:02:23;4.15;;;0.77;;
71610;SDS011;59459;51.172;6.682;2022-09-09T10:07:26;4.57;;;0.85;;
71610;SDS011;59459;51.172;6.682;2022-09-09T10:09:55;6.40;;;1.13;;
71610;SDS011;59459;51.172;6.682;2022-09-09T10:22:45;3.30;;;0.75;;
71610;SDS011;59459;51.172;6.682;2022-09-09T10:27:56;4.95;;;0.90;;
71610;SDS011;59459;51.172;6.682;2022-09-09T10:33:10;3.03;;;1.00;;
71610;SDS011;59459;51.172;6.682;2022-09-09T10:38:11;3.40;;;0.80;;
71610;SDS011;59459;51.172;6.682;2022-09-09T10:43:31;3.40;;;0.95;;
71610;SDS011;59459;51.172;6.682;2022-09-09T10:46:10;3.07;;;0.90;;
71610;SDS011;59459;51.172;6.682;2022-09-09T10:51:15;3.38;;;0.90;;
71610;SDS011;59459;51.172;6.682;2022-09-09T10:53:50;3.15;;;0.82;;
71610;SDS011;59459;51.172;6.682;2022-09-09T10:56:18;2.60;;;0.80;;
71610;SDS011;59459;51.172;6.682;2022-09-09T10:58:50;4.20;;;0.90;;
71610;SDS011;59459;51.172;6.682;2022-09-09T11:01:22;3.67;;;0.75;;
71610;SDS011;59459;51.172;6.682;2022-09-09T11:03:50;4.43;;;0.80;;
71610;SDS011;59459;51.172;6.682;2022-09-09T11:06:18;3.05;;;0.70;;
71610;SDS011;59459;51.172;6.682;2022-09-09T11:08:44;3.60;;;0.73;;
71610;SDS011;59459;51.172;6.682;2022-09-09T11:13:46;3.42;;;0.80;;
71610;SDS011;59459;51.172;6.682;2022-09-09T11:19:03;5.28;;;0.90;;
71610;SDS011;59459;51.172;6.682;2022-09-09T11:21:31;3.53;;;0.68;;
71610;SDS011;59459;51.172;6.682;2022-09-09T11:24:04;2.37;;;0.70;;
71610;SDS011;59459;51.172;6.682;2022-09-09T11:26:38;3.53;;;0.60;;
71610;SDS011;59459;51.172;6.682;2022-09-09T11:38:59;3.67;;;0.60;;
71610;SDS011;59459;51.172;6.682;2022-09-09T11:41:32;3.85;;;0.90;;
71610;SDS011;59459;51.172;6.682;2022-09-09T11:43:58;3.50;;;0.90;;
71610;SDS011;59459;51.172;6.682;2022-09-09T11:46:31;6.03;;;1.10;;
71610;SDS011;59459;51.172;6.682;2022-09-09T11:49:03;3.83;;;1.00;;
71610;SDS011;59459;51.172;6.682;2022-09-09T11:51:29;2.97;;;0.82;;
71610;SDS011;59459;51.172;6.682;2022-09-09T11:56:27;4.40;;;0.90;;
71610;SDS011;59459;51.172;6.682;2022-09-09T11:58:54;4.47;;;1.48;;
71610;SDS011;59459;51.172;6.682;2022-09-09T12:01:27;4.93;;;2.17;;
71610;SDS011;59459;51.172;6.682;2022-09-09T12:11:43;3.73;;;1.37;;
71610;SDS011;59459;51.172;6.682;2022-09-09T12:14:18;3.53;;;0.83;;
71610;SDS011;59459;51.172;6.682;2022-09-09T12:16:44;6.15;;;1.00;;
71610;SDS011;59459;51.172;6.682;2022-09-09T12:21:36;2.60;;;0.67;;
71610;SDS011;59459;51.172;6.682;2022-09-09T12:24:11;3.78;;;1.00;;
71610;SDS011;59459;51.172;6.682;2022-09-09T12:26:40;4.53;;;0.70;;
71610;SDS011;59459;51.172;6.682;2022-09-09T12:29:16;2.88;;;0.70;;
71610;SDS011;59459;51.172;6.682;2022-09-09T12:31:46;2.95;;;0.80;;
71610;SDS011;59459;51.172;6.682;2022-09-09T12:34:15;2.40;;;0.80;;
71610;SDS011;59459;51.172;6.682;2022-09-09T12:36:41;4.90;;;0.95;;
71610;SDS011;59459;51.172;6.682;2022-09-09T12:39:10;3.57;;;0.70;;
71610;SDS011;59459;51.172;6.682;2022-09-09T12:41:39;7.15;;;0.70;;
71610;SDS011;59459;51.172;6.682;2022-09-09T12:44:05;4.73;;;0.90;;
71610;SDS011;59459;51.172;6.682;2022-09-09T12:48:58;2.20;;;0.70;;
71610;SDS011;59459;51.172;6.682;2022-09-09T12:53:50;3.20;;;0.80;;
71610;SDS011;59459;51.172;6.682;2022-09-09T12:56:20;5.53;;;0.90;;
71610;SDS011;59459;51.172;6.682;2022-09-09T12:58:46;4.53;;;1.80;;
71610;SDS011;59459;51.172;6.682;2022-09-09T13:01:18;3.33;;;0.93;;
71610;SDS011;59459;51.172;6.682;2022-09-09T13:03:45;1.75;;;0.75;;
71610;SDS011;59459;51.172;6.682;2022-09-09T13:06:13;2.65;;;0.90;;
71610;SDS011;59459;51.172;6.682;2022-09-09T13:08:39;4.45;;;0.73;;
71610;SDS011;59459;51.172;6.682;2022-09-09T13:11:07;3.47;;;0.97;;
71610;SDS011;59459;51.172;6.682;2022-09-09T13:13:36;3.22;;;0.70;;
71610;SDS011;59459;51.172;6.682;2022-09-09T13:16:03;4.28;;;1.02;;
71610;SDS011;59459;51.172;6.682;2022-09-09T13:18:30;3.08;;;0.70;;
71610;SDS011;59459;51.172;6.682;2022-09-09T13:20:56;5.80;;;1.20;;
71610;SDS011;59459;51.172;6.682;2022-09-09T13:23:26;3.85;;;1.02;;
71610;SDS011;59459;51.172;6.682;2022-09-09T13:25:59;3.65;;;0.80;;
71610;SDS011;59459;51.172;6.682;2022-09-09T13:28:25;3.50;;;0.90;;
71610;SDS011;59459;51.172;6.682;2022-09-09T13:30:58;3.90;;;1.00;;
71610;SDS011;59459;51.172;6.682;2022-09-09T13:33:30;4.57;;;1.37;;
71610;SDS011;59459;51.172;6.682;2022-09-09T13:35:57;3.90;;;0.85;;
71610;SDS011;59459;51.172;6.682;2022-09-09T13:38:23;4.53;;;0.80;;
71610;SDS011;59459;51.172;6.682;2022-09-09T13:41:08;3.90;;;0.93;;
71610;SDS011;59459;51.172;6.682;2022-09-09T13:43:37;4.65;;;1.23;;
71610;SDS011;59459;51.172;6.682;2022-09-09T13:46:22;2.60;;;0.80;;
71610;SDS011;59459;51.172;6.682;2022-09-09T13:48:59;3.28;;;1.13;;
71610;SDS011;59459;51.172;6.682;2022-09-09T13:53:55;5.50;;;1.25;;
71610;SDS011;59459;51.172;6.682;2022-09-09T13:56:21;3.17;;;1.05;;
71610;SDS011;59459;51.172;6.682;2022-09-09T13:58:47;3.33;;;0.73;;
71610;SDS011;59459;51.172;6.682;2022-09-09T14:01:12;3.17;;;1.03;;
71610;SDS011;59459;51.172;6.682;2022-09-09T14:03:37;3.87;;;1.50;;
71610;SDS011;59459;51.172;6.682;2022-09-09T14:06:02;4.00;;;0.93;;
71610;SDS011;59459;51.172;6.682;2022-09-09T14:08:27;3.17;;;1.20;;
71610;SDS011;59459;51.172;6.682;2022-09-09T14:11:01;3.17;;;1.00;;
71610;SDS011;59459;51.172;6.682;2022-09-09T14:13:26;3.10;;;0.90;;
71610;SDS011;59459;51.172;6.682;2022-09-09T14:15:52;2.57;;;0.90;;
71610;SDS011;59459;51.172;6.682;2022-09-09T14:18:17;7.40;;;1.30;;
71610;SDS011;59459;51.172;6.682;2022-09-09T14:20:43;4.53;;;1.10;;
71610;SDS011;59459;51.172;6.682;2022-09-09T14:23:09;4.20;;;1.00;;
71610;SDS011;59459;51.172;6.682;2022-09-09T14:25:35;5.00;;;1.10;;
71610;SDS011;59459;51.172;6.682;2022-09-09T14:28:00;3.27;;;0.80;;
71610;SDS011;59459;51.172;6.682;2022-09-09T14:30:26;1.75;;;0.50;;
71610;SDS011;59459;51.172;6.682;2022-09-09T14:32:52;2.17;;;0.50;;
71610;SDS011;59459;51.172;6.682;2022-09-09T14:35:17;1.97;;;0.40;;
71610;SDS011;59459;51.172;6.682;2022-09-09T14:37:43;1.58;;;0.50;;
71610;SDS011;59459;51.172;6.682;2022-09-09T14:40:09;1.00;;;0.50;;
71610;SDS011;59459;51.172;6.682;2022-09-09T14:42:36;0.80;;;0.40;;
71610;SDS011;59459;51.172;6.682;2022-09-09T14:45:02;1.88;;;0.50;;
71610;SDS011;59459;51.172;6.682;2022-09-09T14:47:27;2.47;;;0.43;;
71610;SDS011;59459;51.172;6.682;2022-09-09T14:49:52;4.37;;;0.60;;
71610;SDS011;59459;51.172;6.682;2022-09-09T14:52:18;2.80;;;0.60;;
71610;SDS011;59459;51.172;6.682;2022-09-09T14:54:43;2.40;;;0.60;;
71610;SDS011;59459;51.172;6.682;2022-09-09T14:57:08;1.20;;;0.40;;
71610;SDS011;59459;51.172;6.682;2022-09-09T14:59:33;3.77;;;0.47;;
71610;SDS011;59459;51.172;6.682;2022-09-09T15:01:59;2.10;;;0.40;;
71610;SDS011;59459;51.172;6.682;2022-09-09T15:04:28;1.10;;;0.40;;
71610;SDS011;59459;51.172;6.682;2022-09-09T15:06:54;2.77;;;0.60;;
71610;SDS011;59459;51.172;6.682;2022-09-09T15:09:19;2.97;;;0.40;;
71610;SDS011;59459;51.172;6.682;2022-09-09T15:11:44;2.30;;;0.50;;
71610;SDS011;59459;51.172;6.682;2022-09-09T15:14:10;2.50;;;0.50;;
71610;SDS011;59459;51.172;6.682;2022-09-09T15:16:37;3.72;;;0.80;;
71610;SDS011;59459;51.172;6.682;2022-09-09T15:19:03;3.00;;;0.70;;
71610;SDS011;59459;51.172;6.682;2022-09-09T15:21:29;3.07;;;0.57;;
71610;SDS011;59459;51.172;6.682;2022-09-09T15:23:55;3.78;;;0.70;;
71610;SDS011;59459;51.172;6.682;2022-09-09T15:26:20;2.13;;;0.50;;
71610;SDS011;59459;51.172;6.682;2022-09-09T15:28:46;1.30;;;0.60;;
71610;SDS011;59459;51.172;6.682;2022-09-09T15:31:16;1.80;;;0.50;;
71610;SDS011;59459;51.172;6.682;2022-09-09T15:33:54;3.15;;;0.88;;
71610;SDS011;59459;51.172;6.682;2022-09-09T15:36:27;2.73;;;0.67;;
71610;SDS011;59459;51.172;6.682;2022-09-09T15:38:53;1.73;;;0.52;;
71610;SDS011;59459;51.172;6.682;2022-09-09T15:41:19;2.73;;;0.77;;
71610;SDS011;59459;51.172;6.682;2022-09-09T15:43:45;4.35;;;0.80;;
71610;SDS011;59459;51.172;6.682;2022-09-09T15:48:43;6.38;;;1.08;;
71610;SDS011;59459;51.172;6.682;2022-09-09T15:51:09;6.77;;;1.20;;
71610;SDS011;59459;51.172;6.682;2022-09-09T15:53:34;4.78;;;1.13;;
71610;SDS011;59459;51.172;6.682;2022-09-09T15:56:00;6.17;;;1.30;;
71610;SDS011;59459;51.172;6.682;2022-09-09T15:58:25;6.80;;;1.53;;
71610;SDS011;59459;51.172;6.682;2022-09-09T16:00:50;9.17;;;1.57;;
71610;SDS011;59459;51.172;6.682;2022-09-09T16:03:16;5.97;;;1.50;;
71610;SDS011;59459;51.172;6.682;2022-09-09T16:05:41;5.97;;;1.47;;
71610;SDS011;59459;51.172;6.682;2022-09-09T16:08:06;8.50;;;2.10;;
71610;SDS011;59459;51.172;6.682;2022-09-09T16:10:32;7.30;;;1.90;;
71610;SDS011;59459;51.172;6.682;2022-09-09T16:12:57;6.50;;;2.07;;
71610;SDS011;59459;51.172;6.682;2022-09-09T16:15:22;9.70;;;1.77;;
71610;SDS011;59459;51.172;6.682;2022-09-09T16:17:48;7.07;;;2.03;;
71610;SDS011;59459;51.172;6.682;2022-09-09T16:20:13;7.23;;;1.80;;
71610;SDS011;59459;51.172;6.682;2022-09-09T16:22:39;5.50;;;2.00;;
71610;SDS011;59459;51.172;6.682;2022-09-09T16:25:05;6.93;;;1.80;;
71610;SDS011;59459;51.172;6.682;2022-09-09T16:27:30;4.67;;;1.50;;
71610;SDS011;59459;51.172;6.682;2022-09-09T16:29:56;5.57;;;2.07;;
71610;SDS011;59459;51.172;6.682;2022-09-09T16:32:21;9.70;;;1.58;;
71610;SDS011;59459;51.172;6.682;2022-09-09T16:34:47;7.17;;;1.60;;
71610;SDS011;59459;51.172;6.682;2022-09-09T16:37:12;5.37;;;1.30;;
71610;SDS011;59459;51.172;6.682;2022-09-09T16:39:37;3.03;;;0.87;;
71610;SDS011;59459;51.172;6.682;2022-09-09T16:42:02;4.27;;;0.90;;
71610;SDS011;59459;51.172;6.682;2022-09-09T16:44:29;3.47;;;0.85;;
71610;SDS011;59459;51.172;6.682;2022-09-09T16:46:55;6.55;;;1.67;;
71610;SDS011;59459;51.172;6.682;2022-09-09T16:49:21;4.13;;;0.90;;
71610;SDS011;59459;51.172;6.682;2022-09-09T16:51:47;4.67;;;1.57;;
71610;SDS011;59459;51.172;6.682;2022-09-09T16:54:12;3.75;;;1.25;;
71610;SDS011;59459;51.172;6.682;2022-09-09T16:56:39;4.68;;;1.38;;
71610;SDS011;59459;51.172;6.682;2022-09-09T16:59:09;5.00;;;1.33;;
71610;SDS011;59459;51.172;6.682;2022-09-09T17:01:35;5.33;;;1.30;;